Time;durP1;ratioP1;P1;durP2;ratioP2;P2;SDS_P1;SDS_P2;PMS_P1;PMS_P2;Temp;Humidity;BMP_temperature;BMP_pressure;BME280_temperature;BME280_humidity;BME280_pressure;Samples;Min_cycle;Max_cycle;Signal;HPM_P1;HPM_P2
2023/07/14 00:00:20;;;;;;;45.72;41.22;;;18.00;99.90;;;;;;5016691;28;20081;-64
2023/07/14 00:02:48;;;;;;;44.40;40.33;;;17.90;1.00;;;;;;5011421;28;20081;-64
2023/07/14 00:05:17;;;;;;;45.03;40.85;;;18.00;1.00;;;;;;5010677;28;20044;-64
2023/07/14 00:07:58;;;;;;;44.92;40.72;;;18.10;33.90;;;;;;5011429;28;20064;-65
2023/07/14 00:10:31;;;;;;;43.97;39.92;;;18.10;99.90;;;;;;5012451;28;20076;-64
2023/07/14 00:12:58;;;;;;;44.90;40.65;;;18.20;99.90;;;;;;5010906;28;20041;-64
2023/07/14 00:15:24;;;;;;;43.67;39.53;;;18.00;99.90;;;;;;5011094;28;20433;-64
2023/07/14 00:17:59;;;;;;;44.47;40.20;;;18.20;1.00;;;;;;5009978;28;20048;-64
2023/07/14 00:20:28;;;;;;;45.63;41.28;;;18.20;1.00;;;;;;5013456;28;20431;-64
2023/07/14 00:22:55;;;;;;;45.03;40.85;;;18.30;1.00;;;;;;5011347;28;20052;-63
2023/07/14 00:25:22;;;;;;;45.65;41.20;;;18.40;20.70;;;;;;5011264;28;20042;-64
2023/07/14 00:27:49;;;;;;;44.75;40.63;;;18.20;90.50;;;;;;5010787;28;20520;-64
2023/07/14 00:30:21;;;;;;;46.50;41.63;;;18.10;99.90;;;;;;5009911;28;20042;-64
2023/07/14 00:32:49;;;;;;;44.38;39.92;;;18.30;99.90;;;;;;5011552;28;20056;-64
2023/07/14 00:35:20;;;;;;;44.70;40.20;;;18.30;99.90;;;;;;5012437;28;20042;-64
2023/07/14 00:37:47;;;;;;;43.53;39.22;;;18.40;99.90;;;;;;5012877;28;20033;-64
2023/07/14 00:40:19;;;;;;;44.50;40.17;;;18.30;1.00;;;;;;5011854;28;20525;-64
2023/07/14 00:42:52;;;;;;;44.15;39.67;;;18.40;1.00;;;;;;5009020;28;20041;-63
2023/07/14 00:45:20;;;;;;;44.97;40.38;;;18.20;24.10;;;;;;4992444;28;20081;-64
2023/07/14 00:47:52;;;;;;;42.13;37.88;;;18.30;84.60;;;;;;5024409;28;20052;-65
2023/07/14 00:50:37;;;;;;;42.85;38.53;;;18.40;99.90;;;;;;5010758;28;20042;-64
2023/07/14 00:53:09;;;;;;;42.70;38.67;;;18.40;99.90;;;;;;5011789;28;20455;-64
2023/07/14 00:55:45;;;;;;;42.17;38.00;;;18.20;99.90;;;;;;5021483;28;20068;-64
2023/07/14 00:58:17;;;;;;;42.38;38.20;;;18.20;99.90;;;;;;5025473;28;20415;-64
2023/07/14 01:01:10;;;;;;;43.22;39.13;;;18.40;1.00;;;;;;5030883;28;20038;-64
2023/07/14 01:03:40;;;;;;;42.17;38.15;;;18.50;1.00;;;;;;5030293;28;20049;-64
2023/07/14 01:06:16;;;;;;;42.42;38.38;;;18.40;1.00;;;;;;5012941;28;20049;-65
2023/07/14 01:08:55;;;;;;;41.90;37.83;;;18.20;19.60;;;;;;5010556;28;20404;-64
2023/07/14 01:11:40;;;;;;;41.83;37.92;;;18.40;93.70;;;;;;5019511;28;20033;-64
2023/07/14 01:14:11;;;;;;;41.33;37.53;;;18.30;99.90;;;;;;5028843;28;20124;-65
2023/07/14 01:16:38;;;;;;;41.67;37.42;;;18.50;99.90;;;;;;5021930;28;20069;-64
2023/07/14 01:19:12;;;;;;;43.47;38.90;;;18.60;99.90;;;;;;5010370;28;20088;-65
2023/07/14 01:21:40;;;;;;;41.95;37.78;;;18.60;99.90;;;;;;5010271;28;20048;-65
2023/07/14 01:24:27;;;;;;;41.63;37.83;;;18.40;99.90;;;;;;5009711;28;20045;-64
2023/07/14 01:27:02;;;;;;;42.75;37.70;;;18.60;99.90;;;;;;5013585;28;20092;-65
2023/07/14 01:29:28;;;;;;;40.40;36.10;;;18.60;99.90;;;;;;5023154;28;20040;-65
2023/07/14 01:31:55;;;;;;;43.00;37.55;;;18.50;99.90;;;;;;5010494;28;20072;-65
2023/07/14 01:34:21;;;;;;;42.47;37.92;;;18.50;99.90;;;;;;5010023;28;20570;-65
2023/07/14 01:36:48;;;;;;;42.45;37.97;;;18.50;99.90;;;;;;5009759;28;20435;-65
2023/07/14 01:39:14;;;;;;;41.63;37.17;;;18.60;99.90;;;;;;5010125;28;20042;-65
2023/07/14 01:41:41;;;;;;;42.67;38.17;;;18.60;99.90;;;;;;5011210;28;20354;-64
2023/07/14 01:44:15;;;;;;;41.30;36.95;;;18.50;99.90;;;;;;5008344;28;20127;-65
2023/07/14 01:46:41;;;;;;;41.70;37.60;;;18.50;99.90;;;;;;5009434;28;20038;-65
2023/07/14 01:49:27;;;;;;;42.42;38.08;;;18.30;99.90;;;;;;5008879;28;20430;-66
2023/07/14 01:51:56;;;;;;;43.25;38.53;;;18.10;99.90;;;;;;5009701;28;20068;-65
2023/07/14 01:54:26;;;;;;;42.55;38.00;;;18.30;99.90;;;;;;5026857;28;20525;-66
2023/07/14 01:56:54;;;;;;;41.88;37.42;;;18.20;99.90;;;;;;5020361;28;20081;-65
2023/07/14 01:59:24;;;;;;;41.92;37.80;;;18.00;99.90;;;;;;5023201;28;20042;-65
2023/07/14 02:01:52;;;;;;;43.17;37.90;;;18.20;99.90;;;;;;5029795;28;20049;-64
2023/07/14 02:04:25;;;;;;;42.17;37.80;;;18.10;99.90;;;;;;5029517;28;20038;-64
2023/07/14 02:06:50;;;;;;;43.00;38.80;;;18.10;99.90;;;;;;5010726;28;20042;-64
2023/07/14 02:09:19;;;;;;;41.88;37.78;;;18.10;99.90;;;;;;5013736;28;20045;-64
2023/07/14 02:11:49;;;;;;;41.72;37.67;;;18.10;99.90;;;;;;5029323;28;20045;-64
2023/07/14 02:14:18;;;;;;;42.53;37.90;;;18.20;99.90;;;;;;5026297;28;20491;-64
2023/07/14 02:16:49;;;;;;;42.47;38.38;;;18.20;99.90;;;;;;5022584;28;20472;-65
2023/07/14 02:19:22;;;;;;;41.78;37.63;;;17.90;99.90;;;;;;5008306;28;20078;-65
2023/07/14 02:21:49;;;;;;;40.60;36.75;;;18.00;99.90;;;;;;5009721;28;20045;-64
2023/07/14 02:24:19;;;;;;;41.40;37.38;;;17.90;99.90;;;;;;5009685;28;20050;-65
2023/07/14 02:26:49;;;;;;;40.60;36.70;;;18.20;99.90;;;;;;5009253;28;20069;-65
2023/07/14 02:29:15;;;;;;;40.95;36.72;;;17.90;99.90;;;;;;5009666;28;20041;-64
2023/07/14 02:31:54;;;;;;;41.83;37.45;;;18.20;99.90;;;;;;5010718;28;20053;-64
2023/07/14 02:34:21;;;;;;;41.20;37.05;;;18.00;99.90;;;;;;5010758;28;20080;-64
2023/07/14 02:36:58;;;;;;;40.90;36.85;;;18.10;99.90;;;;;;5011001;28;20527;-64
2023/07/14 02:39:25;;;;;;;41.15;37.03;;;17.90;99.90;;;;;;5013087;28;20491;-63
2023/07/14 02:41:57;;;;;;;41.47;37.25;;;18.00;99.90;;;;;;5013561;28;20425;-65
2023/07/14 02:44:30;;;;;;;41.60;37.30;;;17.90;99.90;;;;;;4998065;28;20116;-64
2023/07/14 02:47:02;;;;;;;42.40;38.13;;;18.20;99.90;;;;;;5029126;28;20416;-64
2023/07/14 02:49:27;;;;;;;42.78;38.42;;;18.20;99.90;;;;;;5014024;28;20049;-64
2023/07/14 02:51:53;;;;;;;42.28;38.05;;;18.20;99.90;;;;;;5012711;28;20045;-64
2023/07/14 02:54:19;;;;;;;42.15;38.10;;;18.30;99.90;;;;;;5012506;28;20034;-64
2023/07/14 02:56:44;;;;;;;41.35;37.17;;;18.20;99.90;;;;;;5012719;28;20050;-64
2023/07/14 02:59:12;;;;;;;40.38;36.28;;;18.20;99.90;;;;;;5012765;28;20037;-63
2023/07/14 03:01:38;;;;;;;41.20;37.13;;;18.10;99.90;;;;;;5012830;28;20106;-64
2023/07/14 03:04:04;;;;;;;41.25;36.78;;;18.30;99.90;;;;;;5013747;28;20093;-65
2023/07/14 03:06:31;;;;;;;41.33;37.22;;;18.60;99.90;;;;;;5010755;28;20038;-64
2023/07/14 03:08:56;;;;;;;41.05;36.95;;;18.20;99.90;;;;;;5012657;28;20042;-63
2023/07/14 03:11:22;;;;;;;41.05;37.30;;;18.00;99.90;;;;;;5012424;28;20403;-64
2023/07/14 03:13:48;;;;;;;41.40;37.05;;;18.00;99.90;;;;;;5011076;28;20049;-63
2023/07/14 03:16:15;;;;;;;41.20;37.08;;;18.10;99.90;;;;;;5012167;28;20138;-64
2023/07/14 03:18:41;;;;;;;41.13;37.05;;;17.90;99.90;;;;;;5025645;28;20112;-64
2023/07/14 03:21:06;;;;;;;40.47;36.88;;;17.80;99.90;;;;;;5031446;28;20128;-64
2023/07/14 03:23:33;;;;;;;41.08;37.05;;;18.00;99.90;;;;;;5019837;28;20138;-64
2023/07/14 03:26:05;;;;;;;41.95;37.80;;;17.80;99.90;;;;;;5011932;28;20052;-64
2023/07/14 03:28:32;;;;;;;40.60;36.90;;;17.60;99.90;;;;;;5012253;28;20038;-64
2023/07/14 03:30:58;;;;;;;41.95;37.60;;;17.50;99.90;;;;;;5012462;28;20038;-64
2023/07/14 03:33:24;;;;;;;42.38;37.78;;;17.50;99.90;;;;;;5026669;28;20041;-63
2023/07/14 03:35:50;;;;;;;43.67;38.97;;;17.90;99.90;;;;;;5018128;28;20237;-64
2023/07/14 03:38:16;;;;;;;43.58;39.03;;;17.40;99.90;;;;;;5010506;28;20143;-64
2023/07/14 03:40:42;;;;;;;43.20;39.00;;;17.50;99.90;;;;;;5012128;28;20042;-63
2023/07/14 03:43:08;;;;;;;44.33;37.45;;;17.40;99.90;;;;;;5021519;28;20508;-63
2023/07/14 03:45:34;;;;;;;43.65;39.05;;;17.50;99.90;;;;;;5012002;28;20085;-64
2023/07/14 03:48:00;;;;;;;42.42;38.05;;;17.60;99.90;;;;;;5019320;28;20033;-64
2023/07/14 03:50:26;;;;;;;41.45;37.13;;;17.40;99.90;;;;;;5029405;28;20037;-63
2023/07/14 03:52:52;;;;;;;48.67;38.92;;;17.50;99.90;;;;;;5011758;28;20421;-64
2023/07/14 03:55:18;;;;;;;42.10;38.10;;;17.50;99.90;;;;;;5012075;28;20107;-64
2023/07/14 03:57:44;;;;;;;43.55;38.53;;;17.40;99.90;;;;;;5011491;28;20037;-63
2023/07/14 04:00:12;;;;;;;43.72;39.10;;;17.40;99.90;;;;;;5012121;28;20088;-64
2023/07/14 04:02:39;;;;;;;43.15;39.03;;;17.50;99.90;;;;;;5012567;28;20044;-63
2023/07/14 04:05:07;;;;;;;44.42;39.85;;;17.60;99.90;;;;;;5012386;28;20558;-64
2023/07/14 04:07:36;;;;;;;43.67;39.63;;;17.60;99.90;;;;;;5010906;28;20042;-64
2023/07/14 04:10:04;;;;;;;43.50;39.33;;;17.60;99.90;;;;;;5011111;28;20128;-63
2023/07/14 04:12:30;;;;;;;43.08;39.00;;;17.70;99.90;;;;;;4991874;28;20038;-64
2023/07/14 04:14:56;;;;;;;44.15;39.55;;;17.60;99.90;;;;;;5006970;28;20517;-64
2023/07/14 04:17:22;;;;;;;43.10;38.72;;;17.50;99.90;;;;;;4992418;28;20081;-64
2023/07/14 04:19:48;;;;;;;42.28;38.22;;;17.80;99.90;;;;;;5011950;28;20088;-64
2023/07/14 04:22:14;;;;;;;43.05;38.45;;;17.60;99.90;;;;;;5012099;28;20401;-64
2023/07/14 04:24:40;;;;;;;43.42;38.75;;;17.90;99.90;;;;;;5011352;28;20076;-64
2023/07/14 04:27:05;;;;;;;44.72;39.90;;;17.60;99.90;;;;;;5018581;28;20609;-64
2023/07/14 04:29:31;;;;;;;44.03;39.28;;;17.90;99.90;;;;;;5026333;28;20045;-64
2023/07/14 04:31:58;;;;;;;44.22;39.65;;;17.90;99.90;;;;;;5011168;28;20516;-63
2023/07/14 04:34:26;;;;;;;43.40;38.92;;;17.80;99.90;;;;;;5010930;28;20077;-64
2023/07/14 04:36:51;;;;;;;42.95;38.45;;;17.90;99.90;;;;;;5009608;28;20061;-64
2023/07/14 04:39:17;;;;;;;41.45;37.10;;;18.00;99.90;;;;;;5012192;28;20037;-64
2023/07/14 04:41:44;;;;;;;43.72;39.40;;;17.90;99.90;;;;;;5010780;28;20096;-64
2023/07/14 04:44:14;;;;;;;44.47;39.95;;;17.90;99.90;;;;;;4997717;28;20402;-64
2023/07/14 04:46:40;;;;;;;43.33;38.95;;;18.10;99.90;;;;;;4998031;28;20065;-64
2023/07/14 04:49:07;;;;;;;44.25;39.60;;;17.80;99.90;;;;;;4995502;28;20038;-63
2023/07/14 04:51:35;;;;;;;44.63;39.97;;;18.10;99.90;;;;;;5021461;28;20057;-64
2023/07/14 04:54:00;;;;;;;44.42;39.65;;;18.00;99.90;;;;;;5011721;28;20038;-64
2023/07/14 04:56:27;;;;;;;42.67;38.60;;;18.10;99.90;;;;;;5010070;28;20050;-64
2023/07/14 04:58:52;;;;;;;43.42;37.60;;;18.20;99.90;;;;;;5010552;28;20565;-64
2023/07/14 05:01:18;;;;;;;43.03;38.63;;;18.40;99.90;;;;;;5005595;28;20037;-64
2023/07/14 05:03:44;;;;;;;42.42;38.08;;;18.30;99.90;;;;;;5023919;28;20511;-64
2023/07/14 05:06:10;;;;;;;42.90;38.63;;;18.60;99.90;;;;;;5005911;28;20081;-64
2023/07/14 05:08:36;;;;;;;43.13;38.80;;;18.60;99.90;;;;;;5006008;28;20108;-64
2023/07/14 05:11:02;;;;;;;41.72;37.03;;;18.60;99.90;;;;;;5022362;28;20117;-64
2023/07/14 05:13:28;;;;;;;42.20;37.80;;;18.90;99.90;;;;;;5013260;28;20038;-64
2023/07/14 05:15:56;;;;;;;40.65;36.55;;;18.50;99.90;;;;;;5008981;28;20045;-64
2023/07/14 05:18:21;;;;;;;42.30;37.90;;;18.50;99.90;;;;;;5018881;28;20571;-64
2023/07/14 05:20:47;;;;;;;40.20;35.63;;;18.60;99.90;;;;;;5017904;28;20050;-64
2023/07/14 05:23:13;;;;;;;40.72;35.60;;;18.80;99.90;;;;;;5010303;28;20038;-64
2023/07/14 05:25:38;;;;;;;39.90;36.00;;;18.60;99.90;;;;;;5010569;28;20085;-64
2023/07/14 05:28:04;;;;;;;40.47;36.35;;;18.80;99.90;;;;;;4991684;28;20137;-64
2023/07/14 05:30:30;;;;;;;39.00;35.33;;;19.00;99.90;;;;;;5004677;28;20109;-64
2023/07/14 05:32:56;;;;;;;39.50;35.67;;;19.00;99.90;;;;;;5007037;28;20121;-64
2023/07/14 05:35:22;;;;;;;38.55;34.78;;;18.90;99.90;;;;;;5006909;28;20037;-64
2023/07/14 05:37:48;;;;;;;40.20;36.28;;;18.90;99.90;;;;;;5008015;28;20076;-64
2023/07/14 05:40:16;;;;;;;40.50;36.65;;;19.10;99.90;;;;;;5011405;28;20443;-64
2023/07/14 05:42:42;;;;;;;41.47;35.78;;;19.00;99.90;;;;;;5019002;28;20084;-64
2023/07/14 05:45:09;;;;;;;40.17;36.20;;;19.10;99.90;;;;;;5008489;28;20073;-64
2023/07/14 05:47:37;;;;;;;42.13;37.80;;;19.30;67.80;;;;;;5009844;28;20049;-63
2023/07/14 05:50:05;;;;;;;40.65;36.40;;;19.20;30.30;;;;;;5009505;28;20045;-64
2023/07/14 05:52:31;;;;;;;39.53;35.53;;;19.40;19.70;;;;;;5008248;28;20053;-65
2023/07/14 05:54:56;;;;;;;39.97;36.08;;;19.40;1.00;;;;;;5002512;28;20065;-65
2023/07/14 05:57:22;;;;;;;41.33;36.95;;;19.50;1.00;;;;;;5005118;28;20069;-64
2023/07/14 05:59:48;;;;;;;37.55;33.65;;;19.70;1.00;;;;;;5007185;28;20038;-64
2023/07/14 06:02:14;;;;;;;37.80;33.90;;;19.70;1.00;;;;;;5009649;28;20037;-64
2023/07/14 06:04:45;;;;;;;34.83;31.30;;;19.80;99.90;;;;;;4989968;28;20088;-65
2023/07/14 06:07:12;;;;;;;35.28;31.88;;;19.60;99.90;;;;;;5016090;28;20050;-64
2023/07/14 06:09:39;;;;;;;37.97;33.90;;;19.70;68.60;;;;;;5009520;28;20065;-64
2023/07/14 06:12:07;;;;;;;36.67;33.05;;;19.80;99.90;;;;;;5015923;28;20050;-64
2023/07/14 06:14:34;;;;;;;36.08;32.35;;;19.80;99.90;;;;;;5007892;28;20061;-64
2023/07/14 06:17:01;;;;;;;39.08;34.95;;;19.60;1.00;;;;;;5008918;28;20046;-64
2023/07/14 06:19:30;;;;;;;37.80;34.03;;;19.60;99.90;;;;;;5004872;28;20049;-65
2023/07/14 06:21:56;;;;;;;38.47;34.42;;;19.60;96.90;;;;;;5011368;28;20623;-65
2023/07/14 06:24:23;;;;;;;38.22;34.63;;;19.70;1.00;;;;;;5010849;28;20042;-64
2023/07/14 06:26:49;;;;;;;37.15;33.65;;;19.80;99.90;;;;;;5010806;28;20064;-65
2023/07/14 06:29:15;;;;;;;38.08;34.33;;;19.70;1.00;;;;;;5018721;28;20121;-64
2023/07/14 06:31:40;;;;;;;38.42;34.58;;;19.60;1.00;;;;;;5009238;28;20030;-64
2023/07/14 06:34:06;;;;;;;37.95;34.15;;;19.90;99.90;;;;;;5027251;28;20038;-65
2023/07/14 06:36:32;;;;;;;36.13;32.53;;;19.90;99.90;;;;;;5013412;28;20065;-64
2023/07/14 06:38:58;;;;;;;33.38;30.08;;;20.00;17.60;;;;;;5006298;28;20053;-65
2023/07/14 06:41:23;;;;;;;32.20;29.10;;;20.30;1.00;;;;;;5008757;28;20038;-64
2023/07/14 06:43:49;;;;;;;31.38;28.48;;;20.30;99.90;;;;;;5010111;28;20412;-65
2023/07/14 06:46:15;;;;;;;31.38;28.13;;;20.60;99.90;;;;;;5024294;28;20140;-64
2023/07/14 06:48:40;;;;;;;30.00;27.13;;;20.70;99.90;;;;;;5000523;28;20080;-65
2023/07/14 06:51:06;;;;;;;27.30;24.67;;;20.70;1.00;;;;;;5001669;28;20520;-65
2023/07/14 06:53:32;;;;;;;26.10;23.48;;;21.00;99.90;;;;;;5012233;28;20563;-64
2023/07/14 06:55:58;;;;;;;25.33;23.02;;;21.10;1.00;;;;;;5009458;28;20049;-65
2023/07/14 06:58:25;;;;;;;25.23;22.48;;;21.20;99.90;;;;;;5015876;28;20435;-65
2023/07/14 07:00:51;;;;;;;27.85;23.90;;;21.30;44.40;;;;;;5009121;28;20054;-65
2023/07/14 07:03:16;;;;;;;29.50;26.85;;;21.50;99.90;;;;;;5012099;28;20033;-65
2023/07/14 07:05:43;;;;;;;25.13;22.85;;;21.10;99.90;;;;;;5005792;28;20096;-65
2023/07/14 07:08:14;;;;;;;27.92;25.15;;;21.00;95.40;;;;;;5016092;28;20030;-65
2023/07/14 07:10:41;;;;;;;26.73;24.08;;;20.90;4.30;;;;;;5011785;28;20049;-64
2023/07/14 07:13:07;;;;;;;25.85;22.70;;;20.90;1.00;;;;;;5012330;28;20437;-64
2023/07/14 07:15:33;;;;;;;28.48;25.55;;;21.20;1.00;;;;;;5010874;28;20073;-65
2023/07/14 07:17:58;;;;;;;28.15;25.65;;;21.10;1.00;;;;;;5016009;28;21304;-65
2023/07/14 07:20:24;;;;;;;23.48;21.35;;;21.10;99.90;;;;;;5012883;28;20046;-65
2023/07/14 07:22:50;;;;;;;26.48;22.83;;;21.10;99.90;;;;;;5013339;28;20046;-65
2023/07/14 07:25:18;;;;;;;25.90;23.40;;;21.30;99.90;;;;;;5012029;28;20045;-65
2023/07/14 07:27:44;;;;;;;26.13;22.42;;;21.40;99.90;;;;;;5012118;28;20045;-64
2023/07/14 07:30:10;;;;;;;23.90;21.65;;;21.50;99.90;;;;;;5011889;28;20048;-64
2023/07/14 07:32:37;;;;;;;22.67;20.33;;;21.70;99.90;;;;;;5018651;28;20041;-65
2023/07/14 07:35:03;;;;;;;21.48;19.48;;;22.00;99.90;;;;;;5012414;28;20038;-64
2023/07/14 07:37:33;;;;;;;25.30;22.63;;;22.10;99.90;;;;;;5011548;28;20049;-64
2023/07/14 07:40:00;;;;;;;26.67;21.98;;;21.90;34.60;;;;;;5019236;28;20045;-64
2023/07/14 07:42:27;;;;;;;26.98;24.27;;;21.50;1.00;;;;;;5012980;28;20049;-65
2023/07/14 07:44:52;;;;;;;23.70;21.60;;;21.40;1.00;;;;;;5007175;28;20132;-65
2023/07/14 07:47:18;;;;;;;27.20;24.73;;;22.00;1.00;;;;;;5001925;28;20108;-64
2023/07/14 07:49:44;;;;;;;25.05;20.27;;;21.90;7.00;;;;;;5012600;28;20046;-65
2023/07/14 07:52:12;;;;;;;23.48;17.30;;;22.30;24.50;;;;;;5007388;28;20044;-65
2023/07/14 07:54:41;;;;;;;19.35;17.10;;;22.80;1.00;;;;;;5011623;28;20038;-65
2023/07/14 07:57:08;;;;;;;18.90;16.75;;;23.20;1.00;;;;;;5013840;28;20037;-65
2023/07/14 07:59:34;;;;;;;14.70;13.30;;;24.00;1.00;;;;;;5009903;28;20045;-65
2023/07/14 08:02:00;;;;;;;15.40;13.77;;;23.70;1.00;;;;;;5010888;28;20065;-65
2023/07/14 08:04:26;;;;;;;16.70;15.10;;;23.70;99.90;;;;;;5008103;28;20049;-66
2023/07/14 08:06:52;;;;;;;19.27;16.42;;;23.40;99.90;;;;;;5005266;28;20041;-65
2023/07/14 08:09:18;;;;;;;18.90;16.88;;;23.30;99.90;;;;;;5010072;28;20050;-65
2023/07/14 08:11:44;;;;;;;20.30;18.50;;;23.10;99.90;;;;;;5007665;28;20046;-65
2023/07/14 08:14:19;;;;;;;21.05;18.05;;;22.70;99.90;;;;;;5006725;28;20034;-65
2023/07/14 08:16:45;;;;;;;23.73;21.42;;;22.70;99.90;;;;;;5010946;28;20073;-65
2023/07/14 08:19:13;;;;;;;23.92;21.55;;;22.50;99.90;;;;;;5010793;28;20046;-65
2023/07/14 08:21:39;;;;;;;21.17;19.13;;;22.20;99.90;;;;;;5015519;28;20144;-65
2023/07/14 08:24:06;;;;;;;22.20;19.90;;;22.20;99.90;;;;;;5009523;28;20042;-64
2023/07/14 08:26:33;;;;;;;18.92;16.85;;;22.40;99.90;;;;;;4998757;28;20049;-67
2023/07/14 08:28:59;;;;;;;15.95;14.32;;;22.80;99.90;;;;;;5011460;28;20116;-65
2023/07/14 08:31:24;;;;;;;19.40;17.50;;;22.80;99.90;;;;;;5013443;28;20125;-63
2023/07/14 08:33:51;;;;;;;23.10;18.50;;;23.00;99.90;;;;;;5019993;28;20046;-64
2023/07/14 08:36:17;;;;;;;17.75;15.57;;;23.10;99.90;;;;;;5014479;28;20057;-64
2023/07/14 08:38:43;;;;;;;18.33;16.45;;;23.20;99.90;;;;;;5025664;28;20063;-64
2023/07/14 08:41:09;;;;;;;18.85;15.20;;;23.50;99.90;;;;;;5007444;28;20038;-63
2023/07/14 08:43:46;;;;;;;18.38;16.58;;;23.40;99.90;;;;;;4999774;28;20115;-63
2023/07/14 08:46:25;;;;;;;21.02;16.08;;;23.10;99.90;;;;;;5007589;28;20050;-65
2023/07/14 08:49:04;;;;;;;16.88;15.18;;;23.50;99.90;;;;;;5010338;28;20131;-64
2023/07/14 08:51:39;;;;;;;18.92;17.10;;;23.20;99.90;;;;;;5015236;28;20034;-67
2023/07/14 08:54:19;;;;;;;19.23;17.40;;;23.00;99.90;;;;;;5012001;28;20056;-67
2023/07/14 08:56:48;;;;;;;17.83;16.00;;;23.00;99.90;;;;;;5004646;28;20447;-67
2023/07/14 08:59:20;;;;;;;17.25;15.55;;;23.20;99.90;;;;;;4997617;28;20056;-67
2023/07/14 09:01:53;;;;;;;18.23;14.15;;;23.70;99.90;;;;;;5009263;28;20143;-65
2023/07/14 09:04:34;;;;;;;18.20;14.43;;;23.70;99.90;;;;;;5008418;28;20041;-66
2023/07/14 09:07:01;;;;;;;17.85;13.85;;;23.80;99.90;;;;;;5009845;28;20606;-66
2023/07/14 09:09:32;;;;;;;16.88;14.18;;;24.20;99.90;;;;;;5009135;28;20042;-65
2023/07/14 09:12:31;;;;;;;13.85;11.68;;;24.50;99.90;;;;;;5010258;28;20052;-66
2023/07/14 09:15:00;;;;;;;14.38;10.68;;;24.70;99.90;;;;;;5020200;28;20045;-66
2023/07/14 09:17:47;;;;;;;13.95;11.82;;;24.90;77.70;;;;;;5011035;28;20037;-66
2023/07/14 09:20:40;;;;;;;13.73;12.25;;;25.00;73.20;;;;;;4997869;28;20049;-67
2023/07/14 09:23:44;;;;;;;12.43;10.90;;;25.10;51.30;;;;;;5015449;28;20045;-65
2023/07/14 09:26:27;;;;;;;13.02;10.30;;;25.20;37.20;;;;;;5030005;28;20045;-66
2023/07/14 09:28:55;;;;;;;17.27;11.15;;;25.40;34.50;;;;;;5013363;28;20069;-66
2023/07/14 09:31:40;;;;;;;12.68;10.50;;;25.70;29.60;;;;;;5010434;28;20693;-65
2023/07/14 09:34:22;;;;;;;14.25;12.77;;;25.80;14.80;;;;;;5013546;28;20038;-66
2023/07/14 09:36:48;;;;;;;14.25;11.38;;;25.80;8.10;;;;;;5015610;28;20407;-66
2023/07/14 09:39:20;;;;;;;19.23;13.52;;;25.70;1.00;;;;;;5019120;28;20038;-66
2023/07/14 09:41:48;;;;;;;12.82;11.52;;;25.80;1.00;;;;;;5028695;28;20045;-66
2023/07/14 09:44:13;;;;;;;15.20;12.65;;;25.90;1.00;;;;;;5007347;28;20416;-65
2023/07/14 09:46:47;;;;;;;20.98;18.95;;;25.90;1.00;;;;;;5007526;28;20052;-66
2023/07/14 09:49:28;;;;;;;17.73;16.10;;;25.60;1.00;;;;;;5013498;28;20542;-66
2023/07/14 09:52:27;;;;;;;22.50;20.40;;;25.80;1.00;;;;;;5015444;28;20030;-66
2023/07/14 09:54:54;;;;;;;25.58;23.35;;;25.80;1.00;;;;;;4994180;28;20069;-66
2023/07/14 09:57:23;;;;;;;23.92;21.40;;;26.00;1.00;;;;;;5008925;28;20101;-66
2023/07/14 09:59:59;;;;;;;21.92;19.88;;;26.10;1.00;;;;;;5009152;28;20054;-66
2023/07/14 10:02:34;;;;;;;24.27;21.95;;;26.10;1.00;;;;;;5007315;28;20037;-67
2023/07/14 10:05:03;;;;;;;24.67;22.23;;;25.90;1.00;;;;;;5004369;28;20042;-67
2023/07/14 10:07:35;;;;;;;28.63;26.02;;;25.90;1.00;;;;;;5011771;28;20038;-67
2023/07/14 10:10:07;;;;;;;24.13;21.92;;;26.00;1.00;;;;;;5010404;28;20034;-66
2023/07/14 10:13:07;;;;;;;24.58;22.30;;;25.90;1.00;;;;;;5009902;28;20030;-67
2023/07/14 10:15:35;;;;;;;31.27;28.13;;;26.00;1.00;;;;;;5012908;28;20042;-67
2023/07/14 10:18:12;;;;;;;29.08;26.60;;;26.40;1.00;;;;;;5013708;28;20042;-67
2023/07/14 10:20:39;;;;;;;30.00;27.27;;;26.60;1.00;;;;;;5011193;28;20492;-67
2023/07/14 10:23:13;;;;;;;35.97;32.85;;;26.50;1.00;;;;;;5012533;28;20475;-67
2023/07/14 10:25:39;;;;;;;39.22;36.08;;;25.90;1.00;;;;;;5012854;28;20045;-67
2023/07/14 10:28:11;;;;;;;44.50;40.85;;;25.40;1.00;;;;;;5008234;28;20129;-67
2023/07/14 10:31:09;;;;;;;41.13;37.83;;;25.10;1.00;;;;;;5013372;28;20585;-67
2023/07/14 10:34:03;;;;;;;41.08;37.78;;;25.10;1.00;;;;;;5003168;28;20416;-68
2023/07/14 10:36:37;;;;;;;36.38;33.40;;;25.30;1.00;;;;;;5012818;28;20057;-68
2023/07/14 10:39:11;;;;;;;46.58;42.88;;;25.40;1.00;;;;;;5006527;28;20069;-69
2023/07/14 10:41:39;;;;;;;36.33;32.92;;;25.30;1.00;;;;;;5025981;28;20041;-69
2023/07/14 10:44:32;;;;;;;31.83;28.92;;;25.40;1.00;;;;;;5006075;28;20412;-68
2023/07/14 10:47:04;;;;;;;45.13;41.22;;;25.70;1.00;;;;;;5001977;28;20054;-69
2023/07/14 10:49:40;;;;;;;27.17;24.92;;;25.80;1.00;;;;;;5010201;28;20042;-68
2023/07/14 10:52:16;;;;;;;24.58;22.35;;;25.70;1.00;;;;;;5012829;28;20654;-69
2023/07/14 10:54:57;;;;;;;26.15;23.42;;;25.60;1.00;;;;;;5018684;28;20034;-68
2023/07/14 10:57:56;;;;;;;38.78;35.70;;;25.40;1.00;;;;;;5016993;28;20044;-68
2023/07/14 11:00:45;;;;;;;42.85;39.20;;;25.40;1.00;;;;;;5004075;28;20046;-68
2023/07/14 11:03:37;;;;;;;50.47;46.38;;;25.50;1.00;;;;;;5006587;28;20044;-69
2023/07/14 11:06:12;;;;;;;32.45;29.65;;;25.50;1.00;;;;;;5010016;28;20693;-69
2023/07/14 11:08:38;;;;;;;19.73;16.52;;;25.60;1.00;;;;;;5010474;28;20042;-67
2023/07/14 11:11:11;;;;;;;28.23;25.48;;;25.50;1.00;;;;;;5008080;28;20048;-68
2023/07/14 11:13:46;;;;;;;19.75;17.23;;;25.40;1.00;;;;;;5012361;28;20046;-67
2023/07/14 11:16:26;;;;;;;;;;;25.20;1.00;;;;;;5012674;28;20053;-69
2023/07/14 11:19:07;;;;;;;28.95;26.40;;;24.80;1.00;;;;;;5011291;28;19925;-68
2023/07/14 11:22:16;;;;;;;35.35;32.33;;;24.70;1.00;;;;;;5010126;28;20224;-68
2023/07/14 11:24:56;;;;;;;57.03;52.13;;;24.60;1.00;;;;;;4985909;28;20050;-69
2023/07/14 11:27:31;;;;;;;30.30;27.40;;;24.70;1.00;;;;;;5007074;28;20058;-68
2023/07/14 11:30:03;;;;;;;39.35;36.05;;;25.00;1.00;;;;;;5011266;28;20528;-68
2023/07/14 11:32:41;;;;;;;44.05;40.28;;;25.10;1.00;;;;;;5010831;28;20488;-68
2023/07/14 11:35:24;;;;;;;37.42;34.35;;;25.10;1.00;;;;;;5012067;28;20066;-68
2023/07/14 11:38:04;;;;;;;61.42;56.60;;;25.10;1.00;;;;;;5010917;28;20045;-69
2023/07/14 11:40:37;;;;;;;37.47;33.72;;;25.00;1.00;;;;;;5012441;28;20033;-66
2023/07/14 11:43:04;;;;;;;34.20;31.10;;;25.00;1.00;;;;;;5010784;28;20050;-68
2023/07/14 11:45:33;;;;;;;27.83;25.00;;;24.90;1.00;;;;;;5001827;28;20084;-68
2023/07/14 11:47:59;;;;;;;50.60;46.70;;;24.90;1.00;;;;;;5010011;28;20042;-67
2023/07/14 11:50:29;;;;;;;27.20;24.38;;;24.90;1.00;;;;;;5015703;28;20536;-68
2023/07/14 11:53:06;;;;;;;20.00;17.65;;;24.80;1.00;;;;;;5029816;28;20120;-68
2023/07/14 11:55:36;;;;;;;39.10;35.63;;;24.80;1.00;;;;;;5011232;28;20116;-68
2023/07/14 11:58:10;;;;;;;28.23;25.33;;;24.70;1.00;;;;;;5019514;28;20068;-67
2023/07/14 12:00:41;;;;;;;29.88;26.98;;;24.70;1.00;;;;;;5010624;28;20135;-68
2023/07/14 12:03:48;;;;;;;31.90;28.00;;;24.40;1.00;;;;;;5020005;28;20478;-67
2023/07/14 12:06:19;;;;;;;49.13;44.92;;;24.50;1.00;;;;;;4990770;28;20431;-70
2023/07/14 12:09:01;;;;;;;47.10;43.00;;;24.50;1.00;;;;;;5002539;28;20077;-72
2023/07/14 12:11:55;;;;;;;49.65;45.67;;;24.40;1.00;;;;;;5008112;28;20071;-66
2023/07/14 12:14:36;;;;;;;45.80;41.50;;;24.40;1.00;;;;;;5007822;28;20768;-66
2023/07/14 12:17:24;;;;;;;42.92;39.28;;;24.30;1.00;;;;;;5011124;28;20041;-67
2023/07/14 12:19:52;;;;;;;36.58;33.10;;;24.30;1.00;;;;;;5011139;28;20042;-66
2023/07/14 12:22:40;;;;;;;41.05;37.50;;;24.20;1.00;;;;;;5010056;28;20504;-66
2023/07/14 12:25:15;;;;;;;47.13;42.88;;;24.20;1.00;;;;;;5010837;28;20589;-67
2023/07/14 12:27:53;;;;;;;49.17;44.97;;;24.00;1.00;;;;;;5024641;28;20124;-66
2023/07/14 12:30:27;;;;;;;48.13;44.25;;;23.90;1.00;;;;;;5002520;28;20033;-66
2023/07/14 12:33:01;;;;;;;55.22;50.55;;;23.70;7.90;;;;;;5007962;28;20124;-67
2023/07/14 12:35:28;;;;;;;58.50;53.00;;;23.50;14.70;;;;;;5009442;28;20377;-66
2023/07/14 12:37:53;;;;;;;67.72;62.05;;;23.50;24.10;;;;;;5011124;28;20099;-66
2023/07/14 12:40:22;;;;;;;73.22;66.72;;;23.40;38.00;;;;;;4999837;28;20042;-67
2023/07/14 12:42:50;;;;;;;68.70;62.72;;;23.30;46.20;;;;;;5002298;28;20041;-66
2023/07/14 12:45:19;;;;;;;67.82;61.75;;;23.20;58.30;;;;;;5003489;28;20045;-67
2023/07/14 12:47:47;;;;;;;67.93;62.03;;;23.10;70.60;;;;;;5009984;28;20067;-66